Lyndon, Ohio
Current Conditions -  °F | °C
As of 9:54 AM on Monday 24 Nov 2014 (Local Time) from KRZT Reporting Station
Broken Clouds Broken Clouds  
Wind Chill: 63°   Ceiling: 5000
Heat Index: 63°   Visibility: 10mi
Dew Point: 46°   Wind: 25mph
Humidity: 55%   Direction: 210°SSW
Pressure: 29.37"   Gusts: 40mph
Location:  39.3076°N, 83.2481°W
Report Text: KRZT 241454Z AUTO 21022G35KT 10SM SCT045 BKN050 17/08 A2937 RMK AO2
Loading
Personal Weather Stations






























Interactive Weather Map New forecast layout! Learn more

10-Day Weather Forecast

Advertisements
Track Severe Weather on mobile